ADDS METAR Data INFO
IDs: Format: Raw Decoded Include TAF

Data at: 1738 UTC 25 Feb 2018

KMSP 251653Z 26011KT 10SM FEW035 M06/M11 A2973 RMK AO2 SLP080 T10611111
KMSP 251553Z 26009G19KT 10SM CLR M07/M12 A2972 RMK AO2 SLP075 T10721117
KMSP 251453Z 26010KT 10SM CLR M09/M12 A2968 RMK AO2 SLP063 T10891122 50024
KMSP 251353Z 25012G17KT 10SM SCT017 M09/M12 A2968 RMK AO2 SLP064 T10941117
KMSP 251340Z 24008KT 10SM SCT015 M09/M11 A2967 RMK AO2 T10891111
KMSP 251253Z 25011KT 9SM OVC016 M08/M10 A2963 RMK AO2 SLP047 T10831100
KMSP 251237Z 25013G18KT 9SM OVC016 M08/M09 A2963 RMK AO2 T10831094
KMSP 251153Z 25011KT 10SM OVC013 M08/M09 A2961 RMK AO2 SLP038 4/010 60000 70051 T10781094 11050 21089 51024
KMSP 251053Z 25010KT 9SM OVC011 M08/M09 A2959 RMK AO2 SLP033 T10831094
KMSP 250953Z 26015G22KT 6SM BR OVC010 M09/M10 A2956 RMK AO2 SLP022 T10891100
KMSP 250853Z 25013G22KT 7SM BKN013 OVC030 M08/M09 A2953 RMK AO2 SLP013 60000 T10831094 51021
KMSP 250753Z 25013KT 7SM BKN013 OVC037 M08/M09 A2952 RMK AO2 SNB21E42 SLP007 P0000 T10781089
KMSP 250653Z 25013G18KT 6SM BR SCT016 OVC049 M06/M07 A2950 RMK AO2 PK WND 28030/0611 SNE04 SLP000 P0000 T10611072
KMSP 250605Z 27022G27KT 3SM BR FEW008 BKN013 OVC020 M05/M06 A2947 RMK AO2 PK WND 26027/0604 SNE04 P0000 T10501061
KMSP 250601Z 27018G24KT 1 1/2SM R30L/4500VP6000FT -SN BR SCT008 BKN013 OVC018 M05/M06 A2947 RMK AO2 P0000 T10501061
KMSP 250553Z 26016G26KT 1 1/4SM R30L/4500VP6000FT -SN BR BKN010 OVC018 M05/M06 A2947 RMK AO2 PK WND 26027/0546 SLP992 SNB0458 4/011 P0000 60025 T10501056 11011 21050 410111150 56002
KMSP 250550Z 27017G26KT 1 1/2SM -SN BR BKN008 OVC012 M05/M06 A2947 RMK AO2 PK WND 26027/0546 P0000
KMSP 250530Z 26012G23KT 2 1/2SM -SN BR OVC007 M03/M04 A2946 RMK AO2 P0000 T10331039
KMSP 250508Z 25011G20KT 3SM -SN BR BKN007 BKN012 OVC065 M02/M03 A2946 RMK AO2 SFC VIS 4 P0000 T10221028
KMSP 250500Z 25007KT 3SM BR FEW007 BKN024 OVC065 M02/M02 A2947 RMK AO2 SFC VIS 4 SNE0456 P0000 T10221022
KMSP 250453Z 24008KT 2 1/2SM -SN BR FEW008 BKN022 OVC065 M02/M02 A2947 RMK AO2 TWR VIS 3 SLP990 P0002 T10221022
KMSP 250448Z 24009KT 2SM -SN BR FEW007 BKN022 OVC065 M02/M02 A2947 RMK AO2 TWR VIS 3 P0002
KMSP 250440Z 23007KT 1/2SM R30L/P6000FT -SN BR FEW005 SCT011 OVC020 M02/M02 A2947 RMK AO2 SFC VIS 1 3/4 P0002 T10221022
KMSP 250411Z 24004KT 1/2SM R30L/5500VP6000FT -SN BR FEW007 BKN012 OVC018 M02/M02 A2948 RMK AO2 SFC VIS 1 P0001 T10171017
KMSP 250353Z 17003KT 1/2SM R30L/5500VP6000FT -SN BR BKN013 OVC020 M02/M02 A2948 RMK AO2 SFC VIS 1 SLP994 P0003 T10171017
KMSP 250253Z 09004KT 1/2SM R30L/6000VP6000FT -SN BR VV012 M02/M02 A2951 RMK AO2 SFC VIS 1 SLP005 SNINCR 1/11 P0007 60020 T10171017 56047
KMSP 250245Z 09005KT 1/2SM R30L/6000VP6000FT -SN BR VV011 M01/M02 A2951 RMK AO2 SFC VIS 1 P0007 T10111017
KMSP 250153Z 08005KT 1/2SM R30L/2600V4500FT SN FZFG VV005 M02/M02 A2956 RMK AO2 SLP022 SNINCR 1/10 P0009 T10171017
KMSP 250145Z 07005KT 1/4SM R30L/2400V3500FT SN FZFG VV007 M02/M02 A2956 RMK AO2 TWR VIS 1/2 P0007 T10171017
KMSP 250132Z 08006KT 1/2SM R30L/3000V6000FT SN FZFG VV014 M02/M02 A2958 RMK AO2 P0003 T10171017
KMSP 250107Z 07007KT 1SM R30L/P6000FT -SN BR VV016 M02/M02 A2957 RMK AO2 P0001 T10171017
KMSP 250053Z 07010KT 3/4SM R30L/5000VP6000FT -SN BR VV010 M02/M02 A2959 RMK AO2 PRESFR SLP035 P0004 T10171022
KMSP 250022Z 04004KT 3/4SM R30L/6000VP6000FT -SN BR VV010 M02/M02 A2963 RMK AO2 SFC VIS 1 P0002 T10221022
KMSP 250005Z 02005KT 1/2SM R30L/3000V4500FT SN FZFG VV007 M02/M02 A2964 RMK AO2 P0001 T10221022
KMSP 242353Z 02005KT 1/4SM R30L/3000V4000FT SN FZFG VV007 M02/M02 A2965 RMK AO2 TWR VIS 1/2 SLP055 SNINCR 1/9 4/009 P0007 60026 T10221022 11022 21039 56024
KMSP 242330Z VRB04KT 1/4SM R30L/2800V4000FT SN FZFG VV009 M02/M02 A2967 RMK AO2 TWR VIS 1/2 P0004 T10221022
KMSP 242300Z 04008KT 1/2SM R30L/3500V5000FT -SN FZFG BKN010 OVC021 M02/M03 A2967 RMK AO2 P0000 T10221028
KMSP 242253Z 04006KT 1/2SM R30L/2800V5000FT -SN FZFG FEW005 OVC009 M02/M03 A2967 RMK AO2 SLP062 SNINCR 1/9 P0008 T10221028
KMSP 242248Z 04007KT 1/2SM R30L/2800V4500FT -SN FZFG FEW005 OVC009 M02/M03 A2967 RMK AO2 P0007
KMSP 242235Z 04008G15KT 010V070 1/4SM R30L/2200V4000FT SN FZFG FEW005 OVC009 M03/M03 A2968 RMK AO2 TWR VIS 1/2 P0004 T10281033
KMSP 242229Z 04008KT 1/2SM R30L/3000V4000FT -SN FZFG FEW007 OVC011 M03/M03 A2968 RMK AO2 P0004 T10281033
KMSP 242206Z 04010KT 1/2SM R30L/3000V4000FT -SN FZFG VV010 M03/M03 A2971 RMK AO2 P0001 T10281033
KMSP 242153Z 04010G18KT 1/2SM R30L/2600V3000FT -SN FZFG VV008 M03/M03 A2972 RMK AO2 PRESFR SLP080 SNINCR 1/8 P0010 T10281033
KMSP 242149Z 04011G18KT 1/2SM R30L/2600V3000FT SN FZFG VV008 M03/M03 A2973 RMK AO2 PRESFR P0009
KMSP 242139Z 04010KT 1/4SM R30L/2200V3000FT SN FZFG VV007 M03/M03 A2975 RMK AO2 TWR VIS 1/2 PRESFR P0008 T10331033
KMSP 242124Z 05010KT 1/4SM R30L/1600V2000FT SN FZFG VV006 M03/M04 A2977 RMK AO2 TWR VIS 1/2 PRESFR P0005 T10331039
KMSP 242111Z 05011KT 1/4SM R30L/2000V4500FT SN FZFG VV012 M03/M04 A2980 RMK AO2 TWR VIS 1/2 PRESFR P0002 T10281039
KMSP 242104Z 05010KT 1/2SM R30L/3500VP6000FT -SN FZFG VV015 M03/M04 A2981 RMK AO2 P0001 T10281044
KMSP 242053Z 07007KT 1 1/2SM R30L/4000VP6000FT -SN BR OVC024 M02/M04 A2982 RMK AO2 TWR VIS 2 SNE17B33 SLP113 P0001 60001 T10221039 56058
KMSP 242046Z 07005KT 1SM R30L/4000VP6000FT -SN BR FEW018 OVC024 M02/M04 A2983 RMK AO2 TWR VIS 2 SNE17B33 P0001 T10221039
KMSP 242039Z VRB05KT 1 1/2SM R30L/6000VP6000FT -SN BR BKN028 OVC065 M02/M04 A2984 RMK AO2 TWR VIS 2 SNE17B33 P0000 T10221044
KMSP 242036Z 05006KT 2SM -SN BR BKN030 OVC070 M02/M04 A2984 RMK AO2 SFC VIS 2 1/2 SNE17B33 P0000 T10221044
KMSP 242023Z 08006KT 5SM BR BKN017 BKN075 OVC090 M03/M04 A2985 RMK AO2 SNE17 P0000 T10281044
KMSP 242008Z 05006KT 2SM R30L/6000VP6000FT -SN BR BKN017 BKN075 OVC090 M03/M05 A2984 RMK AO2 P0000 T10281050
KMSP 241956Z 06008KT 1 1/4SM R30L/3500VP6000FT -SN BKN019 BKN036 OVC090 M03/M06 A2986 RMK AO2 PRESFR P0000 T10281056
KMSP 241953Z 09009KT 2 1/2SM R30L/5000VP6000FT -SN SCT022 BKN038 OVC090 M03/M06 A2987 RMK AO2 SNB51 PRESFR SLP130 P0000 T10281061
KMSP 241853Z 08012KT 5SM HZ OVC085 M03/M06 A2990 RMK AO2 PRESFR SLP141 T10331061
KMSP 241841Z 07007KT 5SM HZ OVC085 M03/M07 A2994 RMK AO2 T10331067
KMSP 241753Z 08007KT 6SM HZ FEW070 OVC090 M03/M07 A3000 RMK AO2 SLP173 4/007 I6001 T10331067 11033 21133 58036
KMSP 241726Z 10003KT 5SM BR BKN095 M06/M07 A3003 RMK AO2 PRESFR T10561072
KMSP 241653Z COR 00000KT 5SM BR BKN110 M06/M07 A3008 RMK AO2 SLP201 T10611067
KMSP 241621Z 13009KT 5SM BR BKN110 M07/M08 A3008 RMK AO2 T10671078
KMSP 241553Z 13006KT 4SM BR BKN006 BKN060 M08/M09 A3007 RMK AO2 SLP199 T10781089
KMSP 241515Z 08008KT 3SM BR BKN003 BKN020 M09/M10 A3009 RMK AO2 T10941100
KMSP 241500Z 07006KT 2 1/2SM BR BKN003 BKN020 M11/M11 A3010 RMK AO2 PRESFR T11061111
KMSP 241453Z 07006KT 2 1/2SM BR BKN006 M11/M12 A3011 RMK AO2 SLP212 I1001 I3001 T11061117 58017
KMSP 241451Z 08006KT 1/4SM R30L/P6000FT BR BKN006 M11/M12 A3011 RMK AO2 SFC VIS 2 1/2 I1000
KMSP 241353Z 10007KT 1/4SM R30L/2400VP6000FT FZFG OVC003 M13/M13 A3016 RMK AO2 SLP230 T11281133
KMSP 241341Z 11004KT 1/2SM R30L/P6000FT FZFG OVC002 M13/M13 A3017 RMK AO2 T11331133
KMSP 241315Z 14004KT 1 1/2SM R30L/4000VP6000FT BR OVC002 M12/M13 A3017 RMK AO2 T11221128
KMSP 241303Z 08004KT 2 1/2SM BR BKN002 BKN170 M12/M13 A3016 RMK AO2 T11221128
KMSP 241253Z 06005KT 4SM BR SCT003 BKN170 M12/M13 A3016 RMK AO2 SLP228 I1000 T11221133
KMSP 241153Z 00000KT 4SM BR SCT180 M13/M15 A3018 RMK AO2 SLP234 4/007 I1000 I6000 T11331150 11083 21150 58023
KMSP 241053Z 00000KT 5SM BR CLR M13/M16 A3020 RMK AO2 SLP243 T11331156
KMSP 240953Z 00000KT 6SM BR CLR M12/M13 A3022 RMK AO2 SLP249 I1000 T11221133
KMSP 240853Z 21004KT 5SM BR CLR M10/M12 A3025 RMK AO2 SLP256 I1000 I3000 T11001117 56010
KMSP 240753Z 00000KT 8SM CLR M10/M12 A3026 RMK AO2 SLP260 I1000 T11001117
KMSP 240653Z 00000KT 9SM CLR M10/M12 A3026 RMK AO2 SLP262 I1000 T11001117
KMSP 240553Z 32003KT 9SM CLR M08/M10 A3028 RMK AO2 SLP267 4/007 T10831100 11028 21089 400001089 58008